BCS419 LIMC-LIRN
Flight info
| Callsign | BCS419 |
|---|---|
| Flight time | 1h 9m |
| Altitude | 33000 |
| Route | SRN6LXROBAS6Q/35R ROBAS DCT LOGDI DCT EKDIR DCT LOMED DCT GENGI DCT EVULI DCT ERIKA |
| Aircraft | A306/H-SDE3FGHIRWY/LB1 |
Departure
| Time | 2026-05-05 21:11 |
|---|---|
| Airport | Milan Malpensa International Airport (LIMC) |
Arrival
| Time | 2026-05-05 22:20 |
|---|---|
| Airport | Naples International Airport (LIRN) |
| Time | Latitude | Longitude | Altitude | Speed | Heading |
|---|---|---|---|---|---|
| 2026-05-05 20:02 | 45.60689 | 8.72103 | 748 ft | 0 kts | 259° |
| 2026-05-05 20:42 | 45.60689 | 8.72104 | 748 ft | 1 kts | 259° |
| 2026-05-05 20:43 | 45.60693 | 8.72127 | 744 ft | 3 kts | 251° |
| 2026-05-05 20:43 | 45.60700 | 8.72153 | 743 ft | 3 kts | 239° |
| 2026-05-05 20:43 | 45.60712 | 8.72177 | 743 ft | 3 kts | 226° |
| 2026-05-05 20:43 | 45.60726 | 8.72196 | 743 ft | 3 kts | 213° |
| 2026-05-05 20:44 | 45.60744 | 8.72210 | 743 ft | 3 kts | 198° |
| 2026-05-05 20:44 | 45.60763 | 8.72215 | 745 ft | 3 kts | 176° |
| 2026-05-05 20:44 | 45.60772 | 8.72214 | 743 ft | 0 kts | 167° |
| 2026-05-05 20:47 | 45.60735 | 8.72226 | 743 ft | 10 kts | 167° |
| 2026-05-05 20:47 | 45.60645 | 8.72276 | 743 ft | 17 kts | 131° |
| 2026-05-05 20:47 | 45.60640 | 8.72465 | 744 ft | 22 kts | 94° |
| 2026-05-05 20:48 | 45.60622 | 8.72706 | 748 ft | 27 kts | 96° |
| 2026-05-05 20:48 | 45.60605 | 8.72935 | 745 ft | 18 kts | 97° |
| 2026-05-05 20:48 | 45.60592 | 8.73105 | 745 ft | 17 kts | 96° |
| 2026-05-05 20:48 | 45.60625 | 8.73241 | 744 ft | 13 kts | 49° |
| 2026-05-05 20:49 | 45.60694 | 8.73304 | 744 ft | 11 kts | 26° |
| 2026-05-05 20:49 | 45.60756 | 8.73341 | 745 ft | 9 kts | 21° |
| 2026-05-05 20:49 | 45.60813 | 8.73373 | 745 ft | 11 kts | 21° |
| 2026-05-05 20:49 | 45.60916 | 8.73401 | 745 ft | 19 kts | 354° |
| 2026-05-05 20:50 | 45.61073 | 8.73357 | 746 ft | 26 kts | 350° |
| 2026-05-05 20:50 | 45.61258 | 8.73307 | 746 ft | 26 kts | 350° |
| 2026-05-05 20:50 | 45.61424 | 8.73260 | 746 ft | 15 kts | 348° |
| 2026-05-05 20:50 | 45.61521 | 8.73233 | 743 ft | 14 kts | 348° |
| 2026-05-05 20:51 | 45.61602 | 8.73246 | 745 ft | 11 kts | 45° |
| 2026-05-05 20:51 | 45.61625 | 8.73337 | 746 ft | 9 kts | 76° |
| 2026-05-05 20:51 | 45.61629 | 8.73413 | 747 ft | 3 kts | 98° |
| 2026-05-05 20:51 | 45.61628 | 8.73413 | 747 ft | 0 kts | 99° |
| 2026-05-05 21:02 | 45.61618 | 8.73456 | 744 ft | 6 kts | 114° |
| 2026-05-05 21:03 | 45.61602 | 8.73498 | 744 ft | 4 kts | 120° |
| 2026-05-05 21:03 | 45.61597 | 8.73512 | 744 ft | 0 kts | 117° |
| 2026-05-05 21:07 | 45.61596 | 8.73516 | 745 ft | 3 kts | 116° |
| 2026-05-05 21:07 | 45.61583 | 8.73572 | 746 ft | 9 kts | 93° |
| 2026-05-05 21:07 | 45.61583 | 8.73576 | 747 ft | 0 kts | 91° |
| 2026-05-05 21:09 | 45.61583 | 8.73588 | 747 ft | 6 kts | 89° |
| 2026-05-05 21:10 | 45.61611 | 8.73697 | 744 ft | 18 kts | 43° |
| 2026-05-05 21:10 | 45.61775 | 8.73692 | 745 ft | 42 kts | 349° |
| 2026-05-05 21:10 | 45.62296 | 8.73549 | 747 ft | 107 kts | 348° |
| 2026-05-05 21:10 | 45.63213 | 8.73287 | 744 ft | 160 kts | 347° |
| 2026-05-05 21:11 | 45.64394 | 8.72932 | 1109 ft | 186 kts | 349° |
| 2026-05-05 21:11 | 45.65705 | 8.72685 | 1981 ft | 189 kts | 359° |
| 2026-05-05 21:11 | 45.67062 | 8.72654 | 2571 ft | 207 kts | 1° |
| 2026-05-05 21:11 | 45.68577 | 8.72644 | 3015 ft | 228 kts | 0° |
| 2026-05-05 21:12 | 45.70212 | 8.72609 | 3805 ft | 238 kts | 360° |
| 2026-05-05 21:12 | 45.71862 | 8.72867 | 4673 ft | 241 kts | 19° |
| 2026-05-05 21:12 | 45.73284 | 8.74087 | 5455 ft | 239 kts | 39° |
| 2026-05-05 21:12 | 45.74635 | 8.75525 | 5881 ft | 244 kts | 29° |
| 2026-05-05 21:13 | 45.76262 | 8.76142 | 5985 ft | 245 kts | 358° |
| 2026-05-05 21:13 | 45.77866 | 8.75533 | 5989 ft | 243 kts | 327° |
| 2026-05-05 21:13 | 45.79039 | 8.73846 | 5992 ft | 241 kts | 296° |
| 2026-05-05 21:13 | 45.79435 | 8.71565 | 5994 ft | 236 kts | 265° |
| 2026-05-05 21:14 | 45.78951 | 8.69362 | 5988 ft | 233 kts | 233° |
| 2026-05-05 21:14 | 45.77742 | 8.67878 | 5989 ft | 231 kts | 202° |
| 2026-05-05 21:14 | 45.76176 | 8.67573 | 6131 ft | 231 kts | 169° |
| 2026-05-05 21:14 | 45.74653 | 8.68364 | 6665 ft | 236 kts | 155° |
| 2026-05-05 21:15 | 45.73187 | 8.69433 | 6955 ft | 237 kts | 154° |
| 2026-05-05 21:15 | 45.71727 | 8.70537 | 6987 ft | 237 kts | 153° |
| 2026-05-05 21:15 | 45.70262 | 8.71648 | 6993 ft | 238 kts | 153° |
| 2026-05-05 21:15 | 45.68798 | 8.72758 | 6993 ft | 238 kts | 153° |
| 2026-05-05 21:16 | 45.67338 | 8.73866 | 6993 ft | 238 kts | 153° |
| 2026-05-05 21:16 | 45.65872 | 8.74977 | 6993 ft | 238 kts | 153° |
| 2026-05-05 21:16 | 45.64405 | 8.76088 | 6993 ft | 238 kts | 153° |
| 2026-05-05 21:16 | 45.62942 | 8.77198 | 7020 ft | 238 kts | 153° |
| 2026-05-05 21:17 | 45.61461 | 8.78328 | 7290 ft | 247 kts | 153° |
| 2026-05-05 21:17 | 45.59882 | 8.79533 | 7720 ft | 268 kts | 153° |
| 2026-05-05 21:17 | 45.58223 | 8.80799 | 7957 ft | 275 kts | 153° |
| 2026-05-05 21:17 | 45.56541 | 8.82086 | 7994 ft | 275 kts | 153° |
| 2026-05-05 21:18 | 45.54853 | 8.83378 | 7997 ft | 275 kts | 153° |
| 2026-05-05 21:18 | 45.53168 | 8.84667 | 7989 ft | 275 kts | 153° |
| 2026-05-05 21:18 | 45.51456 | 8.85868 | 7996 ft | 274 kts | 158° |
| 2026-05-05 21:18 | 45.49835 | 8.87289 | 7985 ft | 276 kts | 138° |
| 2026-05-05 21:19 | 45.48632 | 8.89436 | 8062 ft | 278 kts | 125° |
| 2026-05-05 21:19 | 45.47650 | 8.91823 | 8514 ft | 282 kts | 120° |
| 2026-05-05 21:19 | 45.46763 | 8.94347 | 9416 ft | 286 kts | 118° |
| 2026-05-05 21:19 | 45.45913 | 8.96923 | 10270 ft | 291 kts | 117° |
| 2026-05-05 21:20 | 45.45026 | 8.99625 | 10666 ft | 312 kts | 118° |
| 2026-05-05 21:20 | 45.44061 | 9.02510 | 10959 ft | 332 kts | 118° |
| 2026-05-05 21:20 | 45.43022 | 9.05557 | 11226 ft | 351 kts | 118° |
| 2026-05-05 21:20 | 45.41917 | 9.08754 | 11484 ft | 369 kts | 118° |
| 2026-05-05 21:21 | 45.40753 | 9.12093 | 11793 ft | 382 kts | 119° |
| 2026-05-05 21:21 | 45.39555 | 9.15518 | 12281 ft | 390 kts | 119° |
| 2026-05-05 21:21 | 45.38339 | 9.18987 | 12832 ft | 396 kts | 119° |
| 2026-05-05 21:21 | 45.37103 | 9.22512 | 13420 ft | 400 kts | 119° |
| 2026-05-05 21:22 | 45.35848 | 9.26087 | 13964 ft | 405 kts | 119° |
| 2026-05-05 21:22 | 45.34586 | 9.29675 | 14522 ft | 409 kts | 120° |
| 2026-05-05 21:22 | 45.33305 | 9.33313 | 15071 ft | 412 kts | 120° |
| 2026-05-05 21:22 | 45.32033 | 9.36918 | 15617 ft | 415 kts | 120° |
| 2026-05-05 21:23 | 45.30731 | 9.40604 | 16212 ft | 419 kts | 120° |
| 2026-05-05 21:23 | 45.29418 | 9.44316 | 16749 ft | 422 kts | 121° |
| 2026-05-05 21:23 | 45.28092 | 9.48059 | 17299 ft | 425 kts | 121° |
| 2026-05-05 21:23 | 45.26662 | 9.51751 | 17813 ft | 425 kts | 127° |
| 2026-05-05 21:24 | 45.24823 | 9.55005 | 18332 ft | 422 kts | 137° |
| 2026-05-05 21:24 | 45.22755 | 9.57957 | 18773 ft | 422 kts | 141° |
| 2026-05-05 21:24 | 45.20580 | 9.60759 | 19200 ft | 423 kts | 143° |
| 2026-05-05 21:24 | 45.18350 | 9.63477 | 19674 ft | 424 kts | 145° |
| 2026-05-05 21:25 | 45.16085 | 9.66174 | 20074 ft | 426 kts | 146° |
| 2026-05-05 21:25 | 45.13813 | 9.68869 | 20510 ft | 428 kts | 146° |
| 2026-05-05 21:25 | 45.11531 | 9.71589 | 20935 ft | 430 kts | 146° |
| 2026-05-05 21:25 | 45.09241 | 9.74335 | 21360 ft | 432 kts | 145° |
| 2026-05-05 21:26 | 45.06961 | 9.77130 | 21781 ft | 435 kts | 144° |
| 2026-05-05 21:26 | 45.04726 | 9.80023 | 22191 ft | 438 kts | 143° |
| 2026-05-05 21:26 | 45.02501 | 9.82983 | 22593 ft | 440 kts | 142° |
| 2026-05-05 21:26 | 45.00275 | 9.85967 | 22971 ft | 442 kts | 142° |
| 2026-05-05 21:27 | 44.98036 | 9.88960 | 23336 ft | 444 kts | 143° |
| 2026-05-05 21:27 | 44.95780 | 9.91955 | 23668 ft | 446 kts | 143° |
| 2026-05-05 21:27 | 44.93542 | 9.94908 | 23948 ft | 448 kts | 143° |
| 2026-05-05 21:27 | 44.91228 | 9.97944 | 24169 ft | 451 kts | 143° |
| 2026-05-05 21:28 | 44.88938 | 10.00938 | 24408 ft | 454 kts | 143° |
| 2026-05-05 21:28 | 44.86621 | 10.03962 | 24682 ft | 456 kts | 143° |
| 2026-05-05 21:28 | 44.84283 | 10.07010 | 24936 ft | 458 kts | 143° |
| 2026-05-05 21:28 | 44.81936 | 10.10067 | 25187 ft | 460 kts | 144° |
| 2026-05-05 21:29 | 44.79589 | 10.13121 | 25433 ft | 462 kts | 144° |
| 2026-05-05 21:29 | 44.77215 | 10.16208 | 25679 ft | 464 kts | 144° |
| 2026-05-05 21:29 | 44.74837 | 10.19296 | 25896 ft | 466 kts | 144° |
| 2026-05-05 21:29 | 44.72445 | 10.22398 | 26100 ft | 468 kts | 144° |
| 2026-05-05 21:30 | 44.70044 | 10.25508 | 26321 ft | 470 kts | 144° |
| 2026-05-05 21:30 | 44.67636 | 10.28624 | 26499 ft | 472 kts | 143° |
| 2026-05-05 21:30 | 44.65215 | 10.31754 | 26708 ft | 474 kts | 143° |
| 2026-05-05 21:30 | 44.62780 | 10.34899 | 26955 ft | 476 kts | 144° |
| 2026-05-05 21:31 | 44.60347 | 10.38041 | 27259 ft | 474 kts | 144° |
| 2026-05-05 21:31 | 44.57951 | 10.41132 | 27568 ft | 474 kts | 144° |
| 2026-05-05 21:31 | 44.55526 | 10.44254 | 27904 ft | 473 kts | 144° |
| 2026-05-05 21:31 | 44.53097 | 10.47374 | 28208 ft | 473 kts | 144° |
| 2026-05-05 21:32 | 44.50671 | 10.50486 | 28519 ft | 473 kts | 144° |
| 2026-05-05 21:32 | 44.48239 | 10.53602 | 28785 ft | 474 kts | 144° |
| 2026-05-05 21:32 | 44.45804 | 10.56717 | 29083 ft | 474 kts | 144° |
| 2026-05-05 21:32 | 44.43374 | 10.59824 | 29374 ft | 474 kts | 144° |
| 2026-05-05 21:33 | 44.40946 | 10.62928 | 29688 ft | 474 kts | 144° |
| 2026-05-05 21:33 | 44.38510 | 10.66040 | 30014 ft | 473 kts | 144° |
| 2026-05-05 21:33 | 44.36079 | 10.69139 | 30313 ft | 473 kts | 145° |
| 2026-05-05 21:33 | 44.33647 | 10.72238 | 30584 ft | 473 kts | 145° |
| 2026-05-05 21:34 | 44.31216 | 10.75329 | 30863 ft | 472 kts | 145° |
| 2026-05-05 21:34 | 44.28789 | 10.78410 | 31140 ft | 471 kts | 145° |
| 2026-05-05 21:34 | 44.26367 | 10.81482 | 31428 ft | 470 kts | 145° |
| 2026-05-05 21:34 | 44.23944 | 10.84551 | 31684 ft | 470 kts | 146° |
| 2026-05-05 21:35 | 44.21522 | 10.87614 | 31934 ft | 470 kts | 146° |
| 2026-05-05 21:35 | 44.19098 | 10.90677 | 32221 ft | 470 kts | 146° |
| 2026-05-05 21:35 | 44.16681 | 10.93730 | 32508 ft | 469 kts | 146° |
| 2026-05-05 21:35 | 44.14262 | 10.96779 | 32786 ft | 469 kts | 146° |
| 2026-05-05 21:36 | 44.11843 | 10.99826 | 32989 ft | 469 kts | 146° |
| 2026-05-05 21:36 | 44.09424 | 11.02872 | 33012 ft | 468 kts | 146° |
| 2026-05-05 21:36 | 44.04604 | 11.08930 | 33019 ft | 466 kts | 146° |
| 2026-05-05 21:37 | 43.99782 | 11.14968 | 33019 ft | 467 kts | 146° |
| 2026-05-05 21:37 | 43.94954 | 11.20999 | 32991 ft | 467 kts | 146° |
| 2026-05-05 21:38 | 43.90159 | 11.26980 | 33001 ft | 467 kts | 146° |
| 2026-05-05 21:38 | 43.85326 | 11.32996 | 32993 ft | 468 kts | 146° |
| 2026-05-05 21:39 | 43.80472 | 11.39020 | 33007 ft | 469 kts | 146° |
| 2026-05-05 21:39 | 43.75610 | 11.45046 | 33008 ft | 469 kts | 146° |
| 2026-05-05 21:40 | 43.71096 | 11.50629 | 33012 ft | 469 kts | 146° |
| 2026-05-05 21:40 | 43.66230 | 11.56633 | 33011 ft | 469 kts | 146° |
| 2026-05-05 21:41 | 43.61359 | 11.62629 | 33019 ft | 469 kts | 146° |
| 2026-05-05 21:41 | 43.56504 | 11.68590 | 32999 ft | 471 kts | 146° |
| 2026-05-05 21:42 | 43.51589 | 11.74608 | 33019 ft | 474 kts | 146° |
| 2026-05-05 21:42 | 43.46651 | 11.80642 | 33022 ft | 475 kts | 146° |
| 2026-05-05 21:43 | 43.41712 | 11.86668 | 33027 ft | 475 kts | 146° |
| 2026-05-05 21:43 | 43.36772 | 11.92681 | 33030 ft | 474 kts | 146° |
| 2026-05-05 21:44 | 43.31837 | 11.98674 | 33037 ft | 474 kts | 146° |
| 2026-05-05 21:44 | 43.26897 | 12.04659 | 33020 ft | 473 kts | 146° |
| 2026-05-05 21:45 | 43.21943 | 12.10642 | 33043 ft | 474 kts | 146° |
| 2026-05-05 21:45 | 43.16991 | 12.16614 | 33034 ft | 474 kts | 146° |
| 2026-05-05 21:46 | 43.12039 | 12.22575 | 33050 ft | 474 kts | 146° |
| 2026-05-05 21:46 | 43.07084 | 12.28522 | 33046 ft | 474 kts | 146° |
| 2026-05-05 21:47 | 43.02126 | 12.34461 | 33050 ft | 474 kts | 146° |
| 2026-05-05 21:47 | 42.97169 | 12.40385 | 33052 ft | 473 kts | 146° |
| 2026-05-05 21:48 | 42.92223 | 12.46282 | 33052 ft | 475 kts | 146° |
| 2026-05-05 21:48 | 42.87237 | 12.52219 | 33058 ft | 476 kts | 146° |
| 2026-05-05 21:49 | 42.83084 | 12.57151 | 33058 ft | 476 kts | 146° |
| 2026-05-05 21:49 | 42.78087 | 12.63075 | 33061 ft | 476 kts | 146° |
| 2026-05-05 21:50 | 42.72280 | 12.69940 | 33056 ft | 475 kts | 146° |
| 2026-05-05 21:50 | 42.68089 | 12.74883 | 33069 ft | 476 kts | 146° |
| 2026-05-05 21:51 | 42.63078 | 12.80782 | 33068 ft | 477 kts | 145° |
| 2026-05-05 21:51 | 42.58055 | 12.86683 | 33074 ft | 478 kts | 145° |
| 2026-05-05 21:52 | 42.50515 | 12.95510 | 33078 ft | 478 kts | 145° |
| 2026-05-05 21:53 | 42.45509 | 13.01353 | 33076 ft | 480 kts | 145° |
| 2026-05-05 21:53 | 42.40432 | 13.07269 | 33075 ft | 482 kts | 145° |
| 2026-05-05 21:54 | 42.35347 | 13.13186 | 33080 ft | 482 kts | 145° |
| 2026-05-05 21:54 | 42.30249 | 13.19101 | 33077 ft | 484 kts | 145° |
| 2026-05-05 21:55 | 42.25135 | 13.25022 | 33090 ft | 484 kts | 145° |
| 2026-05-05 21:55 | 42.21709 | 13.28982 | 33078 ft | 485 kts | 145° |
| 2026-05-05 21:56 | 42.16915 | 13.34533 | 33083 ft | 486 kts | 143° |
| 2026-05-05 21:56 | 42.12653 | 13.39881 | 33078 ft | 487 kts | 142° |
| 2026-05-05 21:57 | 42.07755 | 13.46112 | 33074 ft | 487 kts | 142° |
| 2026-05-05 21:57 | 42.02787 | 13.52402 | 33073 ft | 487 kts | 142° |
| 2026-05-05 21:58 | 41.97879 | 13.58596 | 33075 ft | 486 kts | 142° |
| 2026-05-05 21:58 | 41.92942 | 13.64812 | 33079 ft | 486 kts | 142° |
| 2026-05-05 21:59 | 41.88009 | 13.71007 | 32778 ft | 483 kts | 142° |
| 2026-05-05 21:59 | 41.85568 | 13.74069 | 31944 ft | 480 kts | 142° |
| 2026-05-05 21:59 | 41.83110 | 13.77145 | 30745 ft | 484 kts | 142° |
| 2026-05-05 21:59 | 41.80645 | 13.80226 | 29936 ft | 483 kts | 142° |
| 2026-05-05 22:00 | 41.78202 | 13.83281 | 29188 ft | 478 kts | 141° |
| 2026-05-05 22:00 | 41.75781 | 13.86306 | 28478 ft | 473 kts | 141° |
| 2026-05-05 22:00 | 41.73393 | 13.89299 | 27823 ft | 468 kts | 141° |
| 2026-05-05 22:00 | 41.71020 | 13.92258 | 27126 ft | 464 kts | 141° |
| 2026-05-05 22:01 | 41.68694 | 13.95149 | 26445 ft | 459 kts | 141° |
| 2026-05-05 22:01 | 41.66364 | 13.98040 | 25764 ft | 455 kts | 140° |
| 2026-05-05 22:01 | 41.64056 | 14.00904 | 25107 ft | 450 kts | 140° |
| 2026-05-05 22:01 | 41.61818 | 14.03808 | 24384 ft | 449 kts | 133° |
| 2026-05-05 22:02 | 41.59939 | 14.07129 | 23800 ft | 444 kts | 130° |
| 2026-05-05 22:02 | 41.58089 | 14.10414 | 23074 ft | 440 kts | 129° |
| 2026-05-05 22:02 | 41.56274 | 14.13663 | 22429 ft | 434 kts | 129° |
| 2026-05-05 22:02 | 41.54475 | 14.16868 | 21759 ft | 429 kts | 129° |
| 2026-05-05 22:03 | 41.52687 | 14.20039 | 21110 ft | 425 kts | 129° |
| 2026-05-05 22:03 | 41.50921 | 14.23163 | 20465 ft | 420 kts | 129° |
| 2026-05-05 22:03 | 41.49162 | 14.26266 | 19799 ft | 418 kts | 129° |
| 2026-05-05 22:03 | 41.48642 | 14.27181 | 19600 ft | 418 kts | 129° |
| 2026-05-05 22:04 | 41.46915 | 14.30218 | 18958 ft | 416 kts | 129° |
| 2026-05-05 22:04 | 41.45171 | 14.33283 | 18294 ft | 414 kts | 129° |
| 2026-05-05 22:04 | 41.43429 | 14.36339 | 17526 ft | 412 kts | 129° |
| 2026-05-05 22:04 | 41.41715 | 14.39345 | 16871 ft | 402 kts | 129° |
| 2026-05-05 22:05 | 41.40047 | 14.42269 | 16227 ft | 392 kts | 129° |
| 2026-05-05 22:05 | 41.38414 | 14.45125 | 15593 ft | 383 kts | 129° |
| 2026-05-05 22:05 | 41.36810 | 14.47933 | 14987 ft | 379 kts | 129° |
| 2026-05-05 22:05 | 41.35218 | 14.50716 | 14344 ft | 378 kts | 129° |
| 2026-05-05 22:06 | 41.33626 | 14.53493 | 13655 ft | 375 kts | 129° |
| 2026-05-05 22:06 | 41.32079 | 14.56190 | 13368 ft | 356 kts | 129° |
| 2026-05-05 22:06 | 41.30610 | 14.58753 | 13285 ft | 340 kts | 129° |
| 2026-05-05 22:06 | 41.29221 | 14.61174 | 13185 ft | 317 kts | 129° |
| 2026-05-05 22:07 | 41.27929 | 14.63428 | 13078 ft | 295 kts | 130° |
| 2026-05-05 22:07 | 41.26722 | 14.65527 | 12978 ft | 278 kts | 130° |
| 2026-05-05 22:07 | 41.25580 | 14.67510 | 12850 ft | 263 kts | 130° |
| 2026-05-05 22:07 | 41.24484 | 14.69407 | 12728 ft | 262 kts | 129° |
| 2026-05-05 22:08 | 41.23368 | 14.71337 | 12629 ft | 264 kts | 129° |
| 2026-05-05 22:08 | 41.22242 | 14.73274 | 12256 ft | 267 kts | 131° |
| 2026-05-05 22:08 | 41.20910 | 14.74940 | 11845 ft | 262 kts | 147° |
| 2026-05-05 22:08 | 41.19393 | 14.76253 | 11446 ft | 259 kts | 150° |
| 2026-05-05 22:09 | 41.17858 | 14.77494 | 11032 ft | 257 kts | 151° |
| 2026-05-05 22:09 | 41.16334 | 14.78721 | 10611 ft | 255 kts | 151° |
| 2026-05-05 22:09 | 41.14733 | 14.79643 | 10232 ft | 248 kts | 172° |
| 2026-05-05 22:09 | 41.13062 | 14.79514 | 9876 ft | 240 kts | 202° |
| 2026-05-05 22:10 | 41.11713 | 14.78297 | 9516 ft | 235 kts | 231° |
| 2026-05-05 22:10 | 41.10770 | 14.76530 | 9181 ft | 234 kts | 239° |
| 2026-05-05 22:10 | 41.09950 | 14.74744 | 8872 ft | 235 kts | 239° |
| 2026-05-05 22:10 | 41.09124 | 14.72928 | 8775 ft | 223 kts | 239° |
| 2026-05-05 22:11 | 41.08343 | 14.71229 | 8593 ft | 211 kts | 239° |
| 2026-05-05 22:11 | 41.07579 | 14.69578 | 8291 ft | 211 kts | 239° |
| 2026-05-05 22:11 | 41.06825 | 14.67959 | 7993 ft | 207 kts | 239° |
| 2026-05-05 22:11 | 41.06072 | 14.66342 | 7647 ft | 205 kts | 239° |
| 2026-05-05 22:12 | 41.05322 | 14.64732 | 7257 ft | 205 kts | 239° |
| 2026-05-05 22:12 | 41.04581 | 14.63144 | 6922 ft | 198 kts | 239° |
| 2026-05-05 22:12 | 41.03879 | 14.61643 | 6723 ft | 186 kts | 240° |
| 2026-05-05 22:12 | 41.03212 | 14.60215 | 6453 ft | 180 kts | 240° |
| 2026-05-05 22:13 | 41.02562 | 14.58823 | 6244 ft | 173 kts | 239° |
| 2026-05-05 22:13 | 41.01957 | 14.57499 | 6116 ft | 166 kts | 240° |
| 2026-05-05 22:13 | 41.01349 | 14.56191 | 6014 ft | 166 kts | 240° |
| 2026-05-05 22:13 | 41.00738 | 14.54882 | 5662 ft | 169 kts | 239° |
| 2026-05-05 22:14 | 41.00120 | 14.53570 | 5383 ft | 164 kts | 239° |
| 2026-05-05 22:14 | 40.99534 | 14.52335 | 5156 ft | 152 kts | 239° |
| 2026-05-05 22:14 | 40.98972 | 14.51151 | 4829 ft | 153 kts | 239° |
| 2026-05-05 22:14 | 40.98383 | 14.49898 | 4238 ft | 167 kts | 239° |
| 2026-05-05 22:15 | 40.97756 | 14.48556 | 3753 ft | 172 kts | 238° |
| 2026-05-05 22:15 | 40.97148 | 14.47260 | 3491 ft | 157 kts | 238° |
| 2026-05-05 22:15 | 40.96608 | 14.46111 | 3286 ft | 139 kts | 237° |
| 2026-05-05 22:15 | 40.96112 | 14.45055 | 3118 ft | 133 kts | 238° |
| 2026-05-05 22:16 | 40.95624 | 14.44014 | 2920 ft | 134 kts | 237° |
| 2026-05-05 22:16 | 40.95133 | 14.42967 | 2720 ft | 134 kts | 237° |
| 2026-05-05 22:16 | 40.94647 | 14.41931 | 2518 ft | 134 kts | 237° |
| 2026-05-05 22:16 | 40.94148 | 14.40861 | 2326 ft | 136 kts | 238° |
| 2026-05-05 22:17 | 40.93660 | 14.39813 | 2108 ft | 135 kts | 237° |
| 2026-05-05 22:17 | 40.93160 | 14.38753 | 1858 ft | 136 kts | 238° |
| 2026-05-05 22:17 | 40.92658 | 14.37699 | 1640 ft | 136 kts | 237° |
| 2026-05-05 22:17 | 40.92159 | 14.36639 | 1448 ft | 136 kts | 238° |
| 2026-05-05 22:18 | 40.91663 | 14.35569 | 1271 ft | 136 kts | 238° |
| 2026-05-05 22:18 | 40.91158 | 14.34506 | 1094 ft | 137 kts | 238° |
| 2026-05-05 22:18 | 40.90658 | 14.33436 | 871 ft | 136 kts | 238° |
| 2026-05-05 22:18 | 40.90157 | 14.32363 | 629 ft | 137 kts | 238° |
| 2026-05-05 22:19 | 40.89662 | 14.31324 | 421 ft | 136 kts | 238° |
| 2026-05-05 22:19 | 40.89155 | 14.30255 | 269 ft | 134 kts | 237° |
| 2026-05-05 22:19 | 40.88700 | 14.29294 | 268 ft | 107 kts | 238° |
| 2026-05-05 22:19 | 40.88403 | 14.28652 | 283 ft | 70 kts | 238° |
| 2026-05-05 22:20 | 40.88176 | 14.28172 | 298 ft | 55 kts | 238° |
| 2026-05-05 22:20 | 40.88008 | 14.27817 | 306 ft | 22 kts | 238° |
| 2026-05-05 22:20 | 40.87985 | 14.27797 | 305 ft | 1 kts | 192° |
| 2026-05-05 22:20 | 40.87962 | 14.27798 | 307 ft | 7 kts | 169° |
| 2026-05-05 22:21 | 40.87892 | 14.27854 | 304 ft | 16 kts | 142° |
| 2026-05-05 22:21 | 40.87843 | 14.27901 | 304 ft | 9 kts | 152° |
| 2026-05-05 22:21 | 40.87771 | 14.27929 | 307 ft | 10 kts | 171° |
| 2026-05-05 22:21 | 40.87716 | 14.27938 | 309 ft | 5 kts | 172° |
| 2026-05-05 22:22 | 40.87707 | 14.27939 | 307 ft | 0 kts | 172° |
| 2026-05-05 22:22 | 40.87703 | 14.27940 | 307 ft | 2 kts | 172° |